sensor_id;sensor_type;location;lat;lon;timestamp;P1;durP1;ratioP1;P2;durP2;ratioP2
40367;SDS011;26075;43.320;21.920;2023-05-16T00:03:29;17.02;;;12.90;;
40367;SDS011;26075;43.320;21.920;2023-05-16T00:08:30;17.23;;;12.05;;
40367;SDS011;26075;43.320;21.920;2023-05-16T00:13:31;15.30;;;12.48;;
40367;SDS011;26075;43.320;21.920;2023-05-16T00:18:32;14.48;;;12.50;;
40367;SDS011;26075;43.320;21.920;2023-05-16T00:23:36;15.65;;;12.63;;
40367;SDS011;26075;43.320;21.920;2023-05-16T00:28:37;16.95;;;12.63;;
40367;SDS011;26075;43.320;21.920;2023-05-16T00:33:38;18.55;;;13.13;;
40367;SDS011;26075;43.320;21.920;2023-05-16T00:38:39;18.85;;;12.45;;
40367;SDS011;26075;43.320;21.920;2023-05-16T00:43:40;16.13;;;12.52;;
40367;SDS011;26075;43.320;21.920;2023-05-16T00:48:42;16.65;;;12.23;;
40367;SDS011;26075;43.320;21.920;2023-05-16T00:53:43;18.60;;;12.35;;
40367;SDS011;26075;43.320;21.920;2023-05-16T00:58:44;16.85;;;12.48;;
40367;SDS011;26075;43.320;21.920;2023-05-16T01:03:45;15.85;;;12.52;;
40367;SDS011;26075;43.320;21.920;2023-05-16T01:08:47;15.32;;;11.95;;
40367;SDS011;26075;43.320;21.920;2023-05-16T01:14:11;13.68;;;11.85;;
40367;SDS011;26075;43.320;21.920;2023-05-16T01:24:23;15.30;;;12.20;;
40367;SDS011;26075;43.320;21.920;2023-05-16T01:29:27;17.17;;;11.60;;
40367;SDS011;26075;43.320;21.920;2023-05-16T01:34:28;16.48;;;11.80;;
40367;SDS011;26075;43.320;21.920;2023-05-16T01:39:32;17.42;;;11.60;;
40367;SDS011;26075;43.320;21.920;2023-05-16T01:55:15;13.23;;;11.35;;
40367;SDS011;26075;43.320;21.920;2023-05-16T02:00:19;16.40;;;12.30;;
40367;SDS011;26075;43.320;21.920;2023-05-16T02:05:20;15.63;;;10.88;;
40367;SDS011;26075;43.320;21.920;2023-05-16T02:10:21;17.15;;;11.93;;
40367;SDS011;26075;43.320;21.920;2023-05-16T02:15:22;16.58;;;10.85;;
40367;SDS011;26075;43.320;21.920;2023-05-16T02:20:23;20.92;;;11.65;;
40367;SDS011;26075;43.320;21.920;2023-05-16T02:25:24;21.25;;;12.45;;
40367;SDS011;26075;43.320;21.920;2023-05-16T02:30:26;13.00;;;10.35;;
40367;SDS011;26075;43.320;21.920;2023-05-16T02:35:27;16.40;;;9.70;;
40367;SDS011;26075;43.320;21.920;2023-05-16T02:40:28;16.23;;;10.02;;
40367;SDS011;26075;43.320;21.920;2023-05-16T02:45:29;16.05;;;9.80;;
40367;SDS011;26075;43.320;21.920;2023-05-16T02:50:30;11.82;;;9.68;;
40367;SDS011;26075;43.320;21.920;2023-05-16T02:55:31;13.50;;;9.30;;
40367;SDS011;26075;43.320;21.920;2023-05-16T03:00:32;12.13;;;8.98;;
40367;SDS011;26075;43.320;21.920;2023-05-16T03:05:33;14.77;;;9.50;;
40367;SDS011;26075;43.320;21.920;2023-05-16T03:10:35;15.85;;;10.07;;
40367;SDS011;26075;43.320;21.920;2023-05-16T03:15:36;13.57;;;9.02;;
40367;SDS011;26075;43.320;21.920;2023-05-16T03:20:37;17.15;;;8.93;;
40367;SDS011;26075;43.320;21.920;2023-05-16T03:25:38;15.63;;;9.25;;
40367;SDS011;26075;43.320;21.920;2023-05-16T03:30:39;14.02;;;9.63;;
40367;SDS011;26075;43.320;21.920;2023-05-16T03:35:41;12.80;;;8.77;;
40367;SDS011;26075;43.320;21.920;2023-05-16T03:40:42;16.60;;;8.75;;
40367;SDS011;26075;43.320;21.920;2023-05-16T03:45:44;15.02;;;9.45;;
40367;SDS011;26075;43.320;21.920;2023-05-16T03:50:45;14.75;;;8.20;;
40367;SDS011;26075;43.320;21.920;2023-05-16T03:55:46;12.77;;;8.88;;
40367;SDS011;26075;43.320;21.920;2023-05-16T04:00:49;14.00;;;8.73;;
40367;SDS011;26075;43.320;21.920;2023-05-16T04:05:50;11.02;;;8.43;;
40367;SDS011;26075;43.320;21.920;2023-05-16T04:10:51;11.57;;;8.15;;
40367;SDS011;26075;43.320;21.920;2023-05-16T04:15:52;11.38;;;7.72;;
40367;SDS011;26075;43.320;21.920;2023-05-16T04:20:53;9.50;;;7.43;;
40367;SDS011;26075;43.320;21.920;2023-05-16T04:25:54;13.65;;;7.68;;
40367;SDS011;26075;43.320;21.920;2023-05-16T04:30:56;11.45;;;7.25;;
40367;SDS011;26075;43.320;21.920;2023-05-16T04:35:57;21.02;;;8.23;;
40367;SDS011;26075;43.320;21.920;2023-05-16T04:40:58;12.82;;;7.88;;
40367;SDS011;26075;43.320;21.920;2023-05-16T04:45:59;15.77;;;7.50;;
40367;SDS011;26075;43.320;21.920;2023-05-16T04:51:00;15.77;;;8.05;;
40367;SDS011;26075;43.320;21.920;2023-05-16T04:56:01;13.40;;;8.35;;
40367;SDS011;26075;43.320;21.920;2023-05-16T05:01:04;12.95;;;6.78;;
40367;SDS011;26075;43.320;21.920;2023-05-16T05:06:05;14.45;;;7.13;;
40367;SDS011;26075;43.320;21.920;2023-05-16T05:11:07;17.13;;;7.72;;
40367;SDS011;26075;43.320;21.920;2023-05-16T05:16:08;10.82;;;6.85;;
40367;SDS011;26075;43.320;21.920;2023-05-16T05:21:09;13.35;;;7.32;;
40367;SDS011;26075;43.320;21.920;2023-05-16T05:26:10;13.80;;;6.38;;
40367;SDS011;26075;43.320;21.920;2023-05-16T05:31:11;13.93;;;7.05;;
40367;SDS011;26075;43.320;21.920;2023-05-16T05:36:12;12.80;;;7.00;;
40367;SDS011;26075;43.320;21.920;2023-05-16T05:41:13;17.75;;;6.28;;
40367;SDS011;26075;43.320;21.920;2023-05-16T05:46:15;10.73;;;7.45;;
40367;SDS011;26075;43.320;21.920;2023-05-16T05:51:16;11.07;;;5.93;;
40367;SDS011;26075;43.320;21.920;2023-05-16T05:56:17;10.55;;;6.60;;
40367;SDS011;26075;43.320;21.920;2023-05-16T06:01:18;10.52;;;6.20;;
40367;SDS011;26075;43.320;21.920;2023-05-16T06:06:22;14.15;;;6.43;;
40367;SDS011;26075;43.320;21.920;2023-05-16T06:11:23;9.73;;;6.65;;
40367;SDS011;26075;43.320;21.920;2023-05-16T06:16:25;12.10;;;6.65;;
40367;SDS011;26075;43.320;21.920;2023-05-16T06:21:26;18.30;;;7.72;;
40367;SDS011;26075;43.320;21.920;2023-05-16T06:26:27;13.60;;;6.57;;
40367;SDS011;26075;43.320;21.920;2023-05-16T06:31:28;8.55;;;6.25;;
40367;SDS011;26075;43.320;21.920;2023-05-16T06:36:29;12.50;;;6.43;;
40367;SDS011;26075;43.320;21.920;2023-05-16T06:41:30;11.25;;;6.32;;
40367;SDS011;26075;43.320;21.920;2023-05-16T06:46:31;10.45;;;6.57;;
40367;SDS011;26075;43.320;21.920;2023-05-16T06:51:32;14.18;;;6.50;;
40367;SDS011;26075;43.320;21.920;2023-05-16T06:56:33;13.75;;;6.68;;
40367;SDS011;26075;43.320;21.920;2023-05-16T07:01:34;13.15;;;6.28;;
40367;SDS011;26075;43.320;21.920;2023-05-16T07:06:35;12.68;;;6.78;;
40367;SDS011;26075;43.320;21.920;2023-05-16T07:11:36;13.55;;;6.50;;
40367;SDS011;26075;43.320;21.920;2023-05-16T07:16:37;10.27;;;6.47;;
40367;SDS011;26075;43.320;21.920;2023-05-16T07:21:38;12.23;;;6.88;;
40367;SDS011;26075;43.320;21.920;2023-05-16T07:26:40;15.68;;;6.72;;
40367;SDS011;26075;43.320;21.920;2023-05-16T07:31:41;15.18;;;6.65;;
40367;SDS011;26075;43.320;21.920;2023-05-16T07:36:42;14.57;;;6.47;;
40367;SDS011;26075;43.320;21.920;2023-05-16T07:41:43;11.55;;;6.88;;
40367;SDS011;26075;43.320;21.920;2023-05-16T07:46:44;17.27;;;9.52;;
40367;SDS011;26075;43.320;21.920;2023-05-16T07:51:45;21.33;;;11.43;;
40367;SDS011;26075;43.320;21.920;2023-05-16T07:56:46;17.75;;;11.40;;
40367;SDS011;26075;43.320;21.920;2023-05-16T08:01:47;20.52;;;10.27;;
40367;SDS011;26075;43.320;21.920;2023-05-16T08:06:48;31.30;;;11.35;;
40367;SDS011;26075;43.320;21.920;2023-05-16T08:11:50;17.73;;;11.10;;
40367;SDS011;26075;43.320;21.920;2023-05-16T08:16:51;16.30;;;8.95;;
40367;SDS011;26075;43.320;21.920;2023-05-16T08:21:52;22.38;;;10.25;;
40367;SDS011;26075;43.320;21.920;2023-05-16T08:26:53;16.83;;;9.82;;
40367;SDS011;26075;43.320;21.920;2023-05-16T08:31:54;17.85;;;10.05;;
40367;SDS011;26075;43.320;21.920;2023-05-16T08:36:55;19.60;;;11.00;;
40367;SDS011;26075;43.320;21.920;2023-05-16T08:41:56;19.58;;;9.30;;
40367;SDS011;26075;43.320;21.920;2023-05-16T08:46:57;14.50;;;8.20;;
40367;SDS011;26075;43.320;21.920;2023-05-16T08:57:06;19.65;;;10.07;;
40367;SDS011;26075;43.320;21.920;2023-05-16T09:02:08;16.52;;;9.88;;
40367;SDS011;26075;43.320;21.920;2023-05-16T09:07:10;16.73;;;11.23;;
40367;SDS011;26075;43.320;21.920;2023-05-16T09:12:11;17.27;;;8.77;;
40367;SDS011;26075;43.320;21.920;2023-05-16T09:17:12;21.27;;;8.98;;
40367;SDS011;26075;43.320;21.920;2023-05-16T09:22:14;20.95;;;9.00;;
40367;SDS011;26075;43.320;21.920;2023-05-16T09:27:15;21.00;;;8.43;;
40367;SDS011;26075;43.320;21.920;2023-05-16T09:32:17;15.07;;;9.02;;
40367;SDS011;26075;43.320;21.920;2023-05-16T09:37:18;14.35;;;8.23;;
40367;SDS011;26075;43.320;21.920;2023-05-16T09:42:19;14.48;;;8.55;;
40367;SDS011;26075;43.320;21.920;2023-05-16T09:47:21;16.40;;;8.73;;
40367;SDS011;26075;43.320;21.920;2023-05-16T09:52:26;17.13;;;8.18;;
40367;SDS011;26075;43.320;21.920;2023-05-16T09:57:27;15.90;;;8.10;;
40367;SDS011;26075;43.320;21.920;2023-05-16T10:02:30;16.55;;;8.68;;
40367;SDS011;26075;43.320;21.920;2023-05-16T10:07:31;15.57;;;7.55;;
40367;SDS011;26075;43.320;21.920;2023-05-16T10:12:33;18.42;;;7.55;;
40367;SDS011;26075;43.320;21.920;2023-05-16T10:17:35;16.25;;;7.75;;
40367;SDS011;26075;43.320;21.920;2023-05-16T10:22:42;12.70;;;6.88;;
40367;SDS011;26075;43.320;21.920;2023-05-16T10:27:44;14.32;;;7.40;;
40367;SDS011;26075;43.320;21.920;2023-05-16T10:32:46;16.20;;;7.35;;
40367;SDS011;26075;43.320;21.920;2023-05-16T10:37:48;11.52;;;6.57;;
40367;SDS011;26075;43.320;21.920;2023-05-16T10:43:00;13.95;;;7.22;;
40367;SDS011;26075;43.320;21.920;2023-05-16T10:48:04;13.65;;;6.32;;
40367;SDS011;26075;43.320;21.920;2023-05-16T11:03:38;13.77;;;7.05;;
40367;SDS011;26075;43.320;21.920;2023-05-16T11:14:14;17.45;;;8.10;;
40367;SDS011;26075;43.320;21.920;2023-05-16T11:19:33;14.20;;;8.07;;
40367;SDS011;26075;43.320;21.920;2023-05-16T11:24:35;14.50;;;7.63;;
40367;SDS011;26075;43.320;21.920;2023-05-16T11:29:37;15.70;;;7.75;;
40367;SDS011;26075;43.320;21.920;2023-05-16T11:34:39;12.23;;;7.93;;
40367;SDS011;26075;43.320;21.920;2023-05-16T11:39:40;14.55;;;7.63;;
40367;SDS011;26075;43.320;21.920;2023-05-16T11:44:42;16.23;;;7.82;;
40367;SDS011;26075;43.320;21.920;2023-05-16T11:49:43;41.55;;;9.52;;
40367;SDS011;26075;43.320;21.920;2023-05-16T11:54:44;23.55;;;8.65;;
40367;SDS011;26075;43.320;21.920;2023-05-16T11:59:46;24.92;;;11.15;;
40367;SDS011;26075;43.320;21.920;2023-05-16T12:04:48;18.75;;;10.38;;
40367;SDS011;26075;43.320;21.920;2023-05-16T12:09:52;25.95;;;12.23;;
40367;SDS011;26075;43.320;21.920;2023-05-16T12:14:53;19.40;;;11.40;;
40367;SDS011;26075;43.320;21.920;2023-05-16T12:19:55;18.15;;;12.27;;
40367;SDS011;26075;43.320;21.920;2023-05-16T12:25:17;19.77;;;9.23;;
40367;SDS011;26075;43.320;21.920;2023-05-16T12:30:20;16.00;;;8.38;;
40367;SDS011;26075;43.320;21.920;2023-05-16T12:35:22;21.00;;;9.40;;
40367;SDS011;26075;43.320;21.920;2023-05-16T12:40:26;13.32;;;7.55;;
40367;SDS011;26075;43.320;21.920;2023-05-16T12:45:28;13.35;;;7.63;;
40367;SDS011;26075;43.320;21.920;2023-05-16T12:50:29;15.75;;;7.53;;
40367;SDS011;26075;43.320;21.920;2023-05-16T12:55:33;20.23;;;8.75;;
40367;SDS011;26075;43.320;21.920;2023-05-16T13:00:35;20.83;;;8.77;;
40367;SDS011;26075;43.320;21.920;2023-05-16T13:05:36;29.08;;;13.35;;
40367;SDS011;26075;43.320;21.920;2023-05-16T13:10:37;31.45;;;13.65;;
40367;SDS011;26075;43.320;21.920;2023-05-16T13:15:38;22.10;;;12.10;;
40367;SDS011;26075;43.320;21.920;2023-05-16T13:20:41;26.90;;;11.43;;
40367;SDS011;26075;43.320;21.920;2023-05-16T13:25:43;19.85;;;12.00;;
40367;SDS011;26075;43.320;21.920;2023-05-16T13:30:44;19.25;;;12.38;;
40367;SDS011;26075;43.320;21.920;2023-05-16T13:35:45;17.42;;;10.57;;
40367;SDS011;26075;43.320;21.920;2023-05-16T13:40:47;16.35;;;10.25;;
40367;SDS011;26075;43.320;21.920;2023-05-16T13:45:48;16.25;;;10.18;;
40367;SDS011;26075;43.320;21.920;2023-05-16T13:50:49;14.05;;;9.38;;
40367;SDS011;26075;43.320;21.920;2023-05-16T13:55:52;13.48;;;8.57;;
40367;SDS011;26075;43.320;21.920;2023-05-16T14:00:53;12.95;;;7.75;;
40367;SDS011;26075;43.320;21.920;2023-05-16T14:05:54;20.15;;;12.73;;
40367;SDS011;26075;43.320;21.920;2023-05-16T14:10:56;15.65;;;10.10;;
40367;SDS011;26075;43.320;21.920;2023-05-16T14:15:57;20.73;;;9.70;;
40367;SDS011;26075;43.320;21.920;2023-05-16T14:20:57;15.65;;;8.30;;
40367;SDS011;26075;43.320;21.920;2023-05-16T14:25:59;17.48;;;9.05;;
40367;SDS011;26075;43.320;21.920;2023-05-16T14:31:00;14.88;;;9.65;;
40367;SDS011;26075;43.320;21.920;2023-05-16T14:36:01;16.25;;;9.23;;
40367;SDS011;26075;43.320;21.920;2023-05-16T14:41:02;18.02;;;9.85;;
40367;SDS011;26075;43.320;21.920;2023-05-16T14:46:03;15.30;;;8.27;;
40367;SDS011;26075;43.320;21.920;2023-05-16T14:51:05;14.55;;;9.18;;
40367;SDS011;26075;43.320;21.920;2023-05-16T14:56:06;14.77;;;8.70;;
40367;SDS011;26075;43.320;21.920;2023-05-16T15:01:07;16.70;;;9.05;;
40367;SDS011;26075;43.320;21.920;2023-05-16T15:06:08;16.95;;;9.95;;
40367;SDS011;26075;43.320;21.920;2023-05-16T15:11:10;14.75;;;8.43;;
40367;SDS011;26075;43.320;21.920;2023-05-16T15:16:11;15.52;;;8.45;;
40367;SDS011;26075;43.320;21.920;2023-05-16T15:21:12;12.45;;;7.43;;
40367;SDS011;26075;43.320;21.920;2023-05-16T15:26:13;10.35;;;6.32;;
40367;SDS011;26075;43.320;21.920;2023-05-16T15:31:14;12.43;;;7.05;;
40367;SDS011;26075;43.320;21.920;2023-05-16T15:36:15;15.85;;;7.15;;
40367;SDS011;26075;43.320;21.920;2023-05-16T15:41:17;14.77;;;5.93;;
40367;SDS011;26075;43.320;21.920;2023-05-16T15:46:18;8.20;;;4.78;;
40367;SDS011;26075;43.320;21.920;2023-05-16T15:51:19;11.50;;;5.00;;
40367;SDS011;26075;43.320;21.920;2023-05-16T15:56:20;12.95;;;4.97;;
40367;SDS011;26075;43.320;21.920;2023-05-16T16:01:21;14.60;;;5.65;;
40367;SDS011;26075;43.320;21.920;2023-05-16T16:06:22;9.77;;;5.20;;
40367;SDS011;26075;43.320;21.920;2023-05-16T16:11:24;13.75;;;5.07;;
40367;SDS011;26075;43.320;21.920;2023-05-16T16:16:26;10.70;;;5.53;;
40367;SDS011;26075;43.320;21.920;2023-05-16T16:21:27;9.77;;;4.20;;
40367;SDS011;26075;43.320;21.920;2023-05-16T16:26:28;13.25;;;4.78;;
40367;SDS011;26075;43.320;21.920;2023-05-16T16:31:30;11.05;;;4.88;;
40367;SDS011;26075;43.320;21.920;2023-05-16T16:36:31;11.32;;;5.05;;
40367;SDS011;26075;43.320;21.920;2023-05-16T16:41:32;11.60;;;5.10;;
40367;SDS011;26075;43.320;21.920;2023-05-16T16:46:33;13.23;;;5.55;;
40367;SDS011;26075;43.320;21.920;2023-05-16T16:51:35;12.45;;;4.75;;
40367;SDS011;26075;43.320;21.920;2023-05-16T16:56:36;9.35;;;4.72;;
40367;SDS011;26075;43.320;21.920;2023-05-16T17:01:37;10.52;;;4.82;;
40367;SDS011;26075;43.320;21.920;2023-05-16T17:06:38;14.07;;;5.30;;
40367;SDS011;26075;43.320;21.920;2023-05-16T17:11:40;11.85;;;7.35;;
40367;SDS011;26075;43.320;21.920;2023-05-16T17:16:41;20.10;;;7.55;;
40367;SDS011;26075;43.320;21.920;2023-05-16T17:21:42;19.35;;;7.70;;
40367;SDS011;26075;43.320;21.920;2023-05-16T17:26:43;20.80;;;7.80;;
40367;SDS011;26075;43.320;21.920;2023-05-16T17:31:45;15.35;;;6.55;;
40367;SDS011;26075;43.320;21.920;2023-05-16T17:36:46;13.13;;;5.50;;
40367;SDS011;26075;43.320;21.920;2023-05-16T17:41:47;12.52;;;5.00;;
40367;SDS011;26075;43.320;21.920;2023-05-16T17:46:48;10.27;;;5.15;;
40367;SDS011;26075;43.320;21.920;2023-05-16T17:51:50;10.75;;;5.35;;
40367;SDS011;26075;43.320;21.920;2023-05-16T17:56:51;19.00;;;5.60;;
40367;SDS011;26075;43.320;21.920;2023-05-16T18:07:15;17.63;;;8.05;;
40367;SDS011;26075;43.320;21.920;2023-05-16T18:12:16;15.68;;;6.57;;
40367;SDS011;26075;43.320;21.920;2023-05-16T18:17:17;20.08;;;6.32;;
40367;SDS011;26075;43.320;21.920;2023-05-16T18:22:18;19.17;;;7.28;;
40367;SDS011;26075;43.320;21.920;2023-05-16T18:27:20;15.85;;;6.70;;
40367;SDS011;26075;43.320;21.920;2023-05-16T18:32:21;15.93;;;7.95;;
40367;SDS011;26075;43.320;21.920;2023-05-16T18:37:22;13.77;;;7.38;;
40367;SDS011;26075;43.320;21.920;2023-05-16T18:42:23;10.65;;;7.18;;
40367;SDS011;26075;43.320;21.920;2023-05-16T18:47:26;11.90;;;6.75;;
40367;SDS011;26075;43.320;21.920;2023-05-16T18:52:27;10.13;;;6.63;;
40367;SDS011;26075;43.320;21.920;2023-05-16T18:57:28;17.95;;;8.68;;
40367;SDS011;26075;43.320;21.920;2023-05-16T19:02:29;18.98;;;7.95;;
40367;SDS011;26075;43.320;21.920;2023-05-16T19:07:30;14.00;;;6.93;;
40367;SDS011;26075;43.320;21.920;2023-05-16T19:12:31;16.55;;;8.45;;
40367;SDS011;26075;43.320;21.920;2023-05-16T19:17:32;14.60;;;8.35;;
40367;SDS011;26075;43.320;21.920;2023-05-16T19:22:34;14.45;;;8.60;;
40367;SDS011;26075;43.320;21.920;2023-05-16T19:27:35;22.08;;;11.38;;
40367;SDS011;26075;43.320;21.920;2023-05-16T19:32:36;18.15;;;8.95;;
40367;SDS011;26075;43.320;21.920;2023-05-16T19:37:39;21.77;;;8.05;;
40367;SDS011;26075;43.320;21.920;2023-05-16T19:42:40;14.55;;;7.88;;
40367;SDS011;26075;43.320;21.920;2023-05-16T19:47:41;18.25;;;7.32;;
40367;SDS011;26075;43.320;21.920;2023-05-16T19:52:42;19.27;;;8.57;;
40367;SDS011;26075;43.320;21.920;2023-05-16T19:57:44;23.08;;;7.90;;
40367;SDS011;26075;43.320;21.920;2023-05-16T20:02:46;17.42;;;8.43;;
40367;SDS011;26075;43.320;21.920;2023-05-16T20:07:47;18.20;;;7.82;;
40367;SDS011;26075;43.320;21.920;2023-05-16T20:12:48;18.33;;;9.07;;
40367;SDS011;26075;43.320;21.920;2023-05-16T20:17:50;21.33;;;10.23;;
40367;SDS011;26075;43.320;21.920;2023-05-16T20:22:51;31.55;;;12.60;;
40367;SDS011;26075;43.320;21.920;2023-05-16T20:27:52;28.52;;;12.25;;
40367;SDS011;26075;43.320;21.920;2023-05-16T20:32:53;24.88;;;10.55;;
40367;SDS011;26075;43.320;21.920;2023-05-16T20:37:54;19.33;;;8.45;;
40367;SDS011;26075;43.320;21.920;2023-05-16T20:42:55;14.82;;;8.35;;
40367;SDS011;26075;43.320;21.920;2023-05-16T20:47:56;18.13;;;8.90;;
40367;SDS011;26075;43.320;21.920;2023-05-16T20:52:57;19.45;;;8.88;;
40367;SDS011;26075;43.320;21.920;2023-05-16T20:57:59;15.07;;;7.93;;
40367;SDS011;26075;43.320;21.920;2023-05-16T21:03:00;15.95;;;8.88;;
40367;SDS011;26075;43.320;21.920;2023-05-16T21:08:01;15.18;;;7.82;;
40367;SDS011;26075;43.320;21.920;2023-05-16T21:13:02;14.32;;;8.95;;
40367;SDS011;26075;43.320;21.920;2023-05-16T21:18:03;23.60;;;8.50;;
40367;SDS011;26075;43.320;21.920;2023-05-16T21:23:04;19.95;;;9.57;;
40367;SDS011;26075;43.320;21.920;2023-05-16T21:28:06;29.02;;;11.32;;
40367;SDS011;26075;43.320;21.920;2023-05-16T21:33:07;22.05;;;11.10;;
40367;SDS011;26075;43.320;21.920;2023-05-16T21:38:08;27.00;;;13.05;;
40367;SDS011;26075;43.320;21.920;2023-05-16T21:43:09;23.65;;;12.30;;
40367;SDS011;26075;43.320;21.920;2023-05-16T21:48:10;24.63;;;12.65;;
40367;SDS011;26075;43.320;21.920;2023-05-16T21:53:11;24.25;;;10.77;;
40367;SDS011;26075;43.320;21.920;2023-05-16T21:58:12;21.77;;;10.13;;
40367;SDS011;26075;43.320;21.920;2023-05-16T22:03:13;21.40;;;9.43;;
40367;SDS011;26075;43.320;21.920;2023-05-16T22:08:17;28.67;;;11.85;;
40367;SDS011;26075;43.320;21.920;2023-05-16T22:13:18;22.20;;;8.30;;
40367;SDS011;26075;43.320;21.920;2023-05-16T22:18:21;17.38;;;8.13;;
40367;SDS011;26075;43.320;21.920;2023-05-16T22:23:22;22.73;;;10.15;;
40367;SDS011;26075;43.320;21.920;2023-05-16T22:28:24;11.65;;;6.80;;
40367;SDS011;26075;43.320;21.920;2023-05-16T22:33:25;17.52;;;7.50;;
40367;SDS011;26075;43.320;21.920;2023-05-16T22:38:26;23.92;;;8.27;;
40367;SDS011;26075;43.320;21.920;2023-05-16T22:43:27;20.50;;;8.75;;
40367;SDS011;26075;43.320;21.920;2023-05-16T22:48:28;21.92;;;8.73;;
40367;SDS011;26075;43.320;21.920;2023-05-16T22:53:30;14.95;;;5.75;;
40367;SDS011;26075;43.320;21.920;2023-05-16T22:58:31;13.15;;;6.03;;
40367;SDS011;26075;43.320;21.920;2023-05-16T23:03:32;15.77;;;6.05;;
40367;SDS011;26075;43.320;21.920;2023-05-16T23:08:33;19.13;;;6.97;;
40367;SDS011;26075;43.320;21.920;2023-05-16T23:13:34;13.82;;;6.22;;
40367;SDS011;26075;43.320;21.920;2023-05-16T23:18:35;16.75;;;7.68;;
40367;SDS011;26075;43.320;21.920;2023-05-16T23:23:36;21.88;;;8.98;;
40367;SDS011;26075;43.320;21.920;2023-05-16T23:28:37;19.63;;;8.27;;
40367;SDS011;26075;43.320;21.920;2023-05-16T23:33:38;15.43;;;8.63;;
40367;SDS011;26075;43.320;21.920;2023-05-16T23:38:39;20.77;;;9.38;;
40367;SDS011;26075;43.320;21.920;2023-05-16T23:43:40;24.90;;;9.35;;
40367;SDS011;26075;43.320;21.920;2023-05-16T23:48:42;27.38;;;10.10;;
40367;SDS011;26075;43.320;21.920;2023-05-16T23:53:43;18.98;;;9.80;;
40367;SDS011;26075;43.320;21.920;2023-05-16T23:58:44;23.30;;;9.65;;
